sensor_id;sensor_type;location;lat;lon;timestamp;pressure;altitude;pressure_sealevel;temperature;humidity
69622;BME280;56841;55.964;37.674;2023-04-01T00:00:47;98133.59;;;2.70;91.13
69622;BME280;56841;55.964;37.674;2023-04-01T00:03:13;98132.56;;;2.63;89.35
69622;BME280;56841;55.964;37.674;2023-04-01T00:05:39;98134.09;;;2.73;89.99
69622;BME280;56841;55.964;37.674;2023-04-01T00:08:05;98130.53;;;2.74;89.37
69622;BME280;56841;55.964;37.674;2023-04-01T00:10:31;98129.53;;;2.67;90.19
69622;BME280;56841;55.964;37.674;2023-04-01T00:12:57;98130.75;;;2.81;89.23
69622;BME280;56841;55.964;37.674;2023-04-01T00:15:22;98134.47;;;2.78;88.98
69622;BME280;56841;55.964;37.674;2023-04-01T00:17:48;98138.97;;;2.94;88.90
69622;BME280;56841;55.964;37.674;2023-04-01T00:20:15;98136.19;;;2.96;87.68
69622;BME280;56841;55.964;37.674;2023-04-01T00:22:41;98134.59;;;3.03;87.31
69622;BME280;56841;55.964;37.674;2023-04-01T00:25:07;98135.28;;;3.13;87.12
69622;BME280;56841;55.964;37.674;2023-04-01T00:27:33;98127.34;;;3.23;86.75
69622;BME280;56841;55.964;37.674;2023-04-01T00:29:59;98127.47;;;3.21;85.42
69622;BME280;56841;55.964;37.674;2023-04-01T00:32:24;98130.34;;;3.02;85.64
69622;BME280;56841;55.964;37.674;2023-04-01T00:34:52;98131.44;;;2.91;86.82
69622;BME280;56841;55.964;37.674;2023-04-01T00:37:19;98125.31;;;2.74;86.96
69622;BME280;56841;55.964;37.674;2023-04-01T00:39:46;98129.53;;;2.67;88.12
69622;BME280;56841;55.964;37.674;2023-04-01T00:42:12;98131.16;;;2.68;90.52
69622;BME280;56841;55.964;37.674;2023-04-01T00:44:39;98126.94;;;2.75;91.36
69622;BME280;56841;55.964;37.674;2023-04-01T00:47:05;98133.78;;;2.76;90.40
69622;BME280;56841;55.964;37.674;2023-04-01T00:49:42;98124.81;;;2.71;89.30
69622;BME280;56841;55.964;37.674;2023-04-01T00:52:12;98125.56;;;2.63;90.21
69622;BME280;56841;55.964;37.674;2023-04-01T00:54:40;98118.78;;;2.70;90.50
69622;BME280;56841;55.964;37.674;2023-04-01T00:57:25;98113.25;;;2.73;89.87
69622;BME280;56841;55.964;37.674;2023-04-01T00:59:54;98116.91;;;2.80;89.37
69622;BME280;56841;55.964;37.674;2023-04-01T01:02:20;98119.16;;;2.83;89.08
69622;BME280;56841;55.964;37.674;2023-04-01T01:04:46;98116.06;;;2.80;88.58
69622;BME280;56841;55.964;37.674;2023-04-01T01:12:38;98119.31;;;2.74;89.12
69622;BME280;56841;55.964;37.674;2023-04-01T01:15:16;98114.03;;;2.66;88.86
69622;BME280;56841;55.964;37.674;2023-04-01T01:34:40;98124.66;;;2.72;89.17
69622;BME280;56841;55.964;37.674;2023-04-01T01:37:15;98121.84;;;2.66;89.66
69622;BME280;56841;55.964;37.674;2023-04-01T01:39:43;98121.03;;;2.65;89.57
69622;BME280;56841;55.964;37.674;2023-04-01T01:42:13;98119.09;;;2.67;89.78
69622;BME280;56841;55.964;37.674;2023-04-01T01:44:42;98127.16;;;2.82;88.81
69622;BME280;56841;55.964;37.674;2023-04-01T01:47:10;98121.25;;;2.80;87.91
69622;BME280;56841;55.964;37.674;2023-04-01T01:49:38;98121.72;;;2.67;88.19
69622;BME280;56841;55.964;37.674;2023-04-01T01:52:06;98125.44;;;2.65;88.66
69622;BME280;56841;55.964;37.674;2023-04-01T01:54:31;98126.03;;;2.58;89.54
69622;BME280;56841;55.964;37.674;2023-04-01T01:57:07;98119.53;;;2.63;89.03
69622;BME280;56841;55.964;37.674;2023-04-01T01:59:38;98119.59;;;2.71;88.92
69622;BME280;56841;55.964;37.674;2023-04-01T02:02:05;98121.91;;;2.74;88.23
69622;BME280;56841;55.964;37.674;2023-04-01T02:04:35;98124.19;;;2.77;88.39
69622;BME280;56841;55.964;37.674;2023-04-01T02:07:07;98123.06;;;2.79;87.90
69622;BME280;56841;55.964;37.674;2023-04-01T02:09:34;98126.66;;;2.78;87.58
69622;BME280;56841;55.964;37.674;2023-04-01T02:12:04;98125.31;;;2.74;87.70
69622;BME280;56841;55.964;37.674;2023-04-01T02:14:54;98125.72;;;2.61;88.28
69622;BME280;56841;55.964;37.674;2023-04-01T02:17:25;98128.81;;;2.57;88.94
69622;BME280;56841;55.964;37.674;2023-04-01T02:20:06;98141.66;;;2.58;89.30
69622;BME280;56841;55.964;37.674;2023-04-01T02:22:36;98139.06;;;2.58;89.11
69622;BME280;56841;55.964;37.674;2023-04-01T02:25:10;98143.47;;;2.58;88.94
69622;BME280;56841;55.964;37.674;2023-04-01T02:27:38;98137.88;;;2.53;89.08
69622;BME280;56841;55.964;37.674;2023-04-01T02:30:05;98141.53;;;2.60;88.75
69622;BME280;56841;55.964;37.674;2023-04-01T02:32:33;98148.00;;;2.56;88.72
69622;BME280;56841;55.964;37.674;2023-04-01T02:35:00;98151.22;;;2.50;88.89
69622;BME280;56841;55.964;37.674;2023-04-01T02:37:31;98150.19;;;2.43;89.75
69622;BME280;56841;55.964;37.674;2023-04-01T02:40:05;98150.50;;;2.40;89.94
69622;BME280;56841;55.964;37.674;2023-04-01T02:42:35;98151.31;;;2.40;90.15
69622;BME280;56841;55.964;37.674;2023-04-01T02:45:01;98143.63;;;2.38;90.36
69622;BME280;56841;55.964;37.674;2023-04-01T02:47:28;98150.19;;;2.43;90.32
69622;BME280;56841;55.964;37.674;2023-04-01T02:49:54;98150.09;;;2.52;89.74
69622;BME280;56841;55.964;37.674;2023-04-01T02:52:28;98156.69;;;2.65;89.00
69622;BME280;56841;55.964;37.674;2023-04-01T02:54:56;98154.44;;;2.70;88.25
69622;BME280;56841;55.964;37.674;2023-04-01T02:57:23;98149.53;;;2.67;88.26
69622;BME280;56841;55.964;37.674;2023-04-01T02:59:49;98143.66;;;2.65;88.51
69622;BME280;56841;55.964;37.674;2023-04-01T03:02:15;98140.47;;;2.71;88.12
69622;BME280;56841;55.964;37.674;2023-04-01T03:04:41;98144.09;;;2.78;87.62
69622;BME280;56841;55.964;37.674;2023-04-01T03:07:08;98142.59;;;2.75;87.48
69622;BME280;56841;55.964;37.674;2023-04-01T03:09:36;98143.25;;;2.77;87.27
69622;BME280;56841;55.964;37.674;2023-04-01T03:12:03;98145.66;;;2.71;87.46
69622;BME280;56841;55.964;37.674;2023-04-01T03:14:32;98140.59;;;2.69;87.55
69622;BME280;56841;55.964;37.674;2023-04-01T03:16:57;98149.53;;;2.67;87.97
69622;BME280;56841;55.964;37.674;2023-04-01T03:19:23;98154.09;;;2.65;87.98
69622;BME280;56841;55.964;37.674;2023-04-01T03:21:49;98152.91;;;2.59;88.32
69622;BME280;56841;55.964;37.674;2023-04-01T03:24:15;98157.16;;;2.60;88.59
69622;BME280;56841;55.964;37.674;2023-04-01T03:26:41;98151.31;;;2.66;88.39
69622;BME280;56841;55.964;37.674;2023-04-01T03:29:07;98157.34;;;2.67;88.20
69622;BME280;56841;55.964;37.674;2023-04-01T03:31:33;98155.44;;;2.77;87.81
69622;BME280;56841;55.964;37.674;2023-04-01T03:33:59;98165.88;;;2.77;87.72
69622;BME280;56841;55.964;37.674;2023-04-01T03:36:26;98164.84;;;2.88;86.99
69622;BME280;56841;55.964;37.674;2023-04-01T03:38:52;98171.38;;;2.92;86.53
69622;BME280;56841;55.964;37.674;2023-04-01T03:41:24;98172.69;;;2.96;86.34
69622;BME280;56841;55.964;37.674;2023-04-01T03:43:53;98169.59;;;3.00;85.95
69622;BME280;56841;55.964;37.674;2023-04-01T03:46:19;98171.19;;;2.93;86.28
69622;BME280;56841;55.964;37.674;2023-04-01T03:48:46;98178.41;;;2.99;86.13
69622;BME280;56841;55.964;37.674;2023-04-01T03:51:11;98173.69;;;3.03;85.92
69622;BME280;56841;55.964;37.674;2023-04-01T03:53:37;98183.66;;;3.07;85.69
69622;BME280;56841;55.964;37.674;2023-04-01T03:56:06;98183.66;;;3.07;85.67
69622;BME280;56841;55.964;37.674;2023-04-01T03:58:34;98192.66;;;3.13;85.57
69622;BME280;56841;55.964;37.674;2023-04-01T04:01:01;98188.47;;;3.20;85.09
69622;BME280;56841;55.964;37.674;2023-04-01T04:03:27;98192.78;;;3.38;85.18
69622;BME280;56841;55.964;37.674;2023-04-01T04:05:53;98192.53;;;3.57;83.21
69622;BME280;56841;55.964;37.674;2023-04-01T04:08:19;98195.66;;;3.61;82.20
69622;BME280;56841;55.964;37.674;2023-04-01T04:10:47;98199.75;;;3.63;82.46
69622;BME280;56841;55.964;37.674;2023-04-01T04:13:13;98194.22;;;3.66;81.64
69622;BME280;56841;55.964;37.674;2023-04-01T04:15:46;98199.88;;;3.62;81.91
69622;BME280;56841;55.964;37.674;2023-04-01T04:18:12;98204.91;;;3.47;82.27
69622;BME280;56841;55.964;37.674;2023-04-01T04:20:46;98206.44;;;3.31;83.44
69622;BME280;56841;55.964;37.674;2023-04-01T04:23:14;98202.19;;;3.22;83.98
69622;BME280;56841;55.964;37.674;2023-04-01T04:25:40;98209.00;;;3.15;84.66
69622;BME280;56841;55.964;37.674;2023-04-01T04:28:06;98216.31;;;3.12;85.37
69622;BME280;56841;55.964;37.674;2023-04-01T04:30:31;98210.63;;;3.16;85.43
69622;BME280;56841;55.964;37.674;2023-04-01T04:32:57;98210.81;;;3.23;85.33
69622;BME280;56841;55.964;37.674;2023-04-01T04:35:23;98210.63;;;3.16;85.29
69622;BME280;56841;55.964;37.674;2023-04-01T04:37:49;98220.75;;;3.19;85.57
69622;BME280;56841;55.964;37.674;2023-04-01T04:40:15;98215.25;;;3.30;85.98
69622;BME280;56841;55.964;37.674;2023-04-01T04:42:41;98225.47;;;3.50;84.65
69622;BME280;56841;55.964;37.674;2023-04-01T04:45:11;98227.78;;;3.61;83.40
69622;BME280;56841;55.964;37.674;2023-04-01T04:47:42;98228.16;;;3.74;82.81
69622;BME280;56841;55.964;37.674;2023-04-01T04:50:08;98225.56;;;3.74;82.01
69622;BME280;56841;55.964;37.674;2023-04-01T04:52:36;98232.38;;;3.67;82.35
69622;BME280;56841;55.964;37.674;2023-04-01T04:55:06;98235.97;;;3.66;82.52
69622;BME280;56841;55.964;37.674;2023-04-01T04:57:32;98236.63;;;3.68;82.55
69622;BME280;56841;55.964;37.674;2023-04-01T04:59:58;98240.22;;;3.67;82.60
69622;BME280;56841;55.964;37.674;2023-04-01T05:02:55;98247.31;;;3.49;83.13
69622;BME280;56841;55.964;37.674;2023-04-01T05:05:21;98250.75;;;3.49;83.82
69622;BME280;56841;55.964;37.674;2023-04-01T05:07:47;98250.09;;;3.55;83.64
69622;BME280;56841;55.964;37.674;2023-04-01T05:10:13;98248.22;;;3.74;83.10
69622;BME280;56841;55.964;37.674;2023-04-01T05:12:39;98251.16;;;3.79;82.74
69622;BME280;56841;55.964;37.674;2023-04-01T05:15:08;98258.88;;;3.80;83.49
69622;BME280;56841;55.964;37.674;2023-04-01T05:17:34;98260.38;;;3.91;82.96
69622;BME280;56841;55.964;37.674;2023-04-01T05:20:02;98252.09;;;4.12;81.66
69622;BME280;56841;55.964;37.674;2023-04-01T05:22:29;98256.69;;;4.18;81.42
69622;BME280;56841;55.964;37.674;2023-04-01T05:24:58;98249.16;;;4.23;80.74
69622;BME280;56841;55.964;37.674;2023-04-01T05:27:25;98253.94;;;4.36;79.25
69622;BME280;56841;55.964;37.674;2023-04-01T05:29:51;98254.44;;;4.32;79.21
69622;BME280;56841;55.964;37.674;2023-04-01T05:32:40;98253.09;;;4.19;79.50
69622;BME280;56841;55.964;37.674;2023-04-01T05:35:06;98255.50;;;4.04;80.08
69622;BME280;56841;55.964;37.674;2023-04-01T05:37:36;98257.06;;;3.81;81.18
69622;BME280;56841;55.964;37.674;2023-04-01T05:40:04;98251.69;;;3.83;81.56
69622;BME280;56841;55.964;37.674;2023-04-01T05:42:30;98249.75;;;3.85;81.73
69622;BME280;56841;55.964;37.674;2023-04-01T05:44:56;98260.16;;;3.76;82.15
69622;BME280;56841;55.964;37.674;2023-04-01T05:47:41;98260.00;;;3.78;82.44
69622;BME280;56841;55.964;37.674;2023-04-01T05:50:09;98266.69;;;3.80;82.89
69622;BME280;56841;55.964;37.674;2023-04-01T05:52:37;98264.47;;;3.94;83.35
69622;BME280;56841;55.964;37.674;2023-04-01T05:55:04;98263.78;;;3.84;82.62
69622;BME280;56841;55.964;37.674;2023-04-01T05:57:30;98269.63;;;3.86;82.38
69622;BME280;56841;55.964;37.674;2023-04-01T05:59:57;98273.06;;;3.86;82.92
69622;BME280;56841;55.964;37.674;2023-04-01T06:02:23;98282.97;;;3.66;83.73
69622;BME280;56841;55.964;37.674;2023-04-01T06:05:10;98279.28;;;3.51;84.80
69622;BME280;56841;55.964;37.674;2023-04-01T06:07:37;98281.25;;;3.49;85.87
69622;BME280;56841;55.964;37.674;2023-04-01T06:10:20;98283.72;;;3.59;85.38
69622;BME280;56841;55.964;37.674;2023-04-01T06:18:28;98294.41;;;3.73;84.29
69622;BME280;56841;55.964;37.674;2023-04-01T06:26:08;98290.09;;;4.07;82.33
69622;BME280;56841;55.964;37.674;2023-04-01T06:49:17;98302.19;;;4.66;77.92
69622;BME280;56841;55.964;37.674;2023-04-01T06:55:46;98313.91;;;4.54;77.52
69622;BME280;56841;55.964;37.674;2023-04-01T06:58:25;98311.59;;;4.43;77.92
69622;BME280;56841;55.964;37.674;2023-04-01T07:00:58;98311.97;;;4.48;78.18
69622;BME280;56841;55.964;37.674;2023-04-01T07:03:49;98306.06;;;4.54;78.33
69622;BME280;56841;55.964;37.674;2023-04-01T07:06:30;98319.31;;;4.61;77.50
69622;BME280;56841;55.964;37.674;2023-04-01T07:09:05;98309.34;;;4.64;77.38
69622;BME280;56841;55.964;37.674;2023-04-01T07:12:01;98309.34;;;4.56;77.82
69622;BME280;56841;55.964;37.674;2023-04-01T07:14:54;98314.41;;;4.41;78.01
69622;BME280;56841;55.964;37.674;2023-04-01T07:17:31;98322.88;;;4.43;78.32
69622;BME280;56841;55.964;37.674;2023-04-01T07:20:13;98318.47;;;4.44;78.24
69622;BME280;56841;55.964;37.674;2023-04-01T07:22:48;98325.03;;;4.48;78.92
69622;BME280;56841;55.964;37.674;2023-04-01T07:25:43;98324.84;;;4.49;78.13
69622;BME280;56841;55.964;37.674;2023-04-01T07:28:32;98329.59;;;4.46;77.61
69622;BME280;56841;55.964;37.674;2023-04-01T07:31:33;98328.16;;;4.68;77.69
69622;BME280;56841;55.964;37.674;2023-04-01T07:37:18;98328.50;;;5.06;76.28
69622;BME280;56841;55.964;37.674;2023-04-01T07:40:08;98325.72;;;5.32;76.01
69622;BME280;56841;55.964;37.674;2023-04-01T07:45:23;98331.09;;;5.22;74.40
69622;BME280;56841;55.964;37.674;2023-04-01T07:48:14;98334.72;;;5.05;75.01
69622;BME280;56841;55.964;37.674;2023-04-01T07:51:01;98333.09;;;5.20;75.03
69622;BME280;56841;55.964;37.674;2023-04-01T07:56:17;98327.66;;;5.38;73.70
69622;BME280;56841;55.964;37.674;2023-04-01T08:02:16;98341.72;;;5.61;73.63
69622;BME280;56841;55.964;37.674;2023-04-01T08:07:54;98349.50;;;5.78;73.28
69622;BME280;56841;55.964;37.674;2023-04-01T08:20:16;98354.25;;;5.74;74.31
69622;BME280;56841;55.964;37.674;2023-04-01T08:22:51;98361.25;;;5.90;73.06
69622;BME280;56841;55.964;37.674;2023-04-01T08:25:28;98357.69;;;5.99;72.78
69622;BME280;56841;55.964;37.674;2023-04-01T08:28:25;98358.72;;;6.29;72.52
69622;BME280;56841;55.964;37.674;2023-04-01T08:30:58;98362.47;;;6.27;72.56
69622;BME280;56841;55.964;37.674;2023-04-01T08:33:28;98363.81;;;6.23;72.14
69622;BME280;56841;55.964;37.674;2023-04-01T08:38:51;98368.47;;;6.44;71.01
69622;BME280;56841;55.964;37.674;2023-04-01T08:44:30;98369.81;;;6.31;70.58
69622;BME280;56841;55.964;37.674;2023-04-01T08:52:34;98372.91;;;6.35;69.03
69622;BME280;56841;55.964;37.674;2023-04-01T09:03:58;98366.31;;;7.01;67.45
69622;BME280;56841;55.964;37.674;2023-04-01T09:06:51;98369.34;;;7.13;66.38
69622;BME280;56841;55.964;37.674;2023-04-01T09:09:56;98372.16;;;7.11;64.86
69622;BME280;56841;55.964;37.674;2023-04-01T09:18:32;98378.59;;;7.24;64.44
69622;BME280;56841;55.964;37.674;2023-04-01T09:26:16;98394.34;;;7.24;64.35
69622;BME280;56841;55.964;37.674;2023-04-01T09:46:26;98406.22;;;7.57;63.77
69622;BME280;56841;55.964;37.674;2023-04-01T09:58:18;98406.25;;;8.61;60.93
69622;BME280;56841;55.964;37.674;2023-04-01T10:12:55;98405.38;;;8.10;62.26
69622;BME280;56841;55.964;37.674;2023-04-01T10:15:39;98416.97;;;8.30;61.59
69622;BME280;56841;55.964;37.674;2023-04-01T10:29:54;98417.97;;;7.99;57.61
69622;BME280;56841;55.964;37.674;2023-04-01T10:50:31;98439.94;;;8.21;57.12
69622;BME280;56841;55.964;37.674;2023-04-01T10:56:33;98445.66;;;8.25;56.25
69622;BME280;56841;55.964;37.674;2023-04-01T11:02:55;98446.50;;;8.91;56.42
69622;BME280;56841;55.964;37.674;2023-04-01T11:25:41;98434.59;;;9.81;53.73
69622;BME280;56841;55.964;37.674;2023-04-01T11:31:11;98445.41;;;9.65;52.17
69622;BME280;56841;55.964;37.674;2023-04-01T11:33:55;98444.19;;;9.89;53.76
69622;BME280;56841;55.964;37.674;2023-04-01T11:36:52;98443.06;;;9.77;53.35
69622;BME280;56841;55.964;37.674;2023-04-01T11:42:44;98440.84;;;9.31;51.40
69622;BME280;56841;55.964;37.674;2023-04-01T11:45:37;98445.88;;;9.47;51.58
69622;BME280;56841;55.964;37.674;2023-04-01T12:05:15;98463.22;;;10.12;49.87
69622;BME280;56841;55.964;37.674;2023-04-01T12:12:46;98456.34;;;10.18;48.56
69622;BME280;56841;55.964;37.674;2023-04-01T12:27:02;98474.00;;;10.94;47.36
69622;BME280;56841;55.964;37.674;2023-04-01T12:32:45;98471.16;;;10.88;48.07
69622;BME280;56841;55.964;37.674;2023-04-01T12:38:43;98456.75;;;10.43;47.93
69622;BME280;56841;55.964;37.674;2023-04-01T12:52:14;98462.38;;;10.75;47.40
69622;BME280;56841;55.964;37.674;2023-04-01T12:54:52;98468.09;;;10.85;47.19
69622;BME280;56841;55.964;37.674;2023-04-01T13:08:13;98484.88;;;10.08;48.48
69622;BME280;56841;55.964;37.674;2023-04-01T13:14:31;98487.34;;;9.88;49.32
69622;BME280;56841;55.964;37.674;2023-04-01T13:16:39;98487.50;;;10.08;50.13
69622;BME280;56841;55.964;37.674;2023-04-01T13:20:07;98489.81;;;10.17;49.37
69622;BME280;56841;55.964;37.674;2023-04-01T13:25:14;98489.00;;;9.67;50.36
69622;BME280;56841;55.964;37.674;2023-04-01T13:27:48;98486.06;;;9.56;50.59
69622;BME280;56841;55.964;37.674;2023-04-01T13:30:53;98498.81;;;9.52;50.71
69622;BME280;56841;55.964;37.674;2023-04-01T13:44:56;98513.91;;;9.43;51.99
69622;BME280;56841;55.964;37.674;2023-04-01T14:07:37;98523.16;;;9.18;48.76
69622;BME280;56841;55.964;37.674;2023-04-01T14:10:50;98529.16;;;9.12;48.84
69622;BME280;56841;55.964;37.674;2023-04-01T14:13:34;98531.06;;;9.18;48.93
69622;BME280;56841;55.964;37.674;2023-04-01T14:27:38;98554.22;;;9.22;51.81
69622;BME280;56841;55.964;37.674;2023-04-01T14:36:04;98550.88;;;9.14;53.72
69622;BME280;56841;55.964;37.674;2023-04-01T14:38:42;98558.06;;;9.20;53.78
69622;BME280;56841;55.964;37.674;2023-04-01T14:44:12;98561.72;;;8.89;54.99
69622;BME280;56841;55.964;37.674;2023-04-01T14:47:03;98562.97;;;8.78;55.08
69622;BME280;56841;55.964;37.674;2023-04-01T14:49:35;98561.91;;;8.73;55.36
69622;BME280;56841;55.964;37.674;2023-04-01T14:52:13;98566.41;;;8.64;55.67
69622;BME280;56841;55.964;37.674;2023-04-01T14:54:44;98574.31;;;8.49;56.42
69622;BME280;56841;55.964;37.674;2023-04-01T14:57:15;98575.47;;;8.47;56.48
69622;BME280;56841;55.964;37.674;2023-04-01T14:59:53;98572.13;;;8.38;56.71
69622;BME280;56841;55.964;37.674;2023-04-01T15:06:30;98588.81;;;8.45;57.17
69622;BME280;56841;55.964;37.674;2023-04-01T15:08:36;98589.91;;;8.51;57.21
69622;BME280;56841;55.964;37.674;2023-04-01T15:17:27;98610.03;;;8.44;58.48
69622;BME280;56841;55.964;37.674;2023-04-01T15:20:22;98612.41;;;8.30;59.05
69622;BME280;56841;55.964;37.674;2023-04-01T15:23:31;98617.38;;;8.11;60.15
69622;BME280;56841;55.964;37.674;2023-04-01T15:31:47;98621.78;;;7.87;63.05
69622;BME280;56841;55.964;37.674;2023-04-01T15:39:48;98633.28;;;7.63;65.36
69622;BME280;56841;55.964;37.674;2023-04-01T15:45:16;98637.72;;;7.54;67.64
69622;BME280;56841;55.964;37.674;2023-04-01T15:51:01;98631.41;;;7.41;69.91
69622;BME280;56841;55.964;37.674;2023-04-01T15:53:52;98646.34;;;7.40;71.38
69622;BME280;56841;55.964;37.674;2023-04-01T16:02:34;98659.13;;;7.43;72.15
69622;BME280;56841;55.964;37.674;2023-04-01T16:13:35;98678.38;;;7.27;74.63
69622;BME280;56841;55.964;37.674;2023-04-01T16:19:22;98679.56;;;7.25;77.00
69622;BME280;56841;55.964;37.674;2023-04-01T16:21:59;98679.75;;;7.15;77.95
69622;BME280;56841;55.964;37.674;2023-04-01T16:24:59;98685.16;;;7.13;79.79
69622;BME280;56841;55.964;37.674;2023-04-01T16:27:41;98683.53;;;7.12;80.71
69622;BME280;56841;55.964;37.674;2023-04-01T16:35:54;98699.81;;;6.92;82.40
69622;BME280;56841;55.964;37.674;2023-04-01T16:38:26;98695.72;;;6.73;83.66
69622;BME280;56841;55.964;37.674;2023-04-01T16:41:49;98700.16;;;6.72;84.61
69622;BME280;56841;55.964;37.674;2023-04-01T16:44:09;98706.88;;;6.75;84.65
69622;BME280;56841;55.964;37.674;2023-04-01T16:46:54;98709.19;;;6.78;86.03
69622;BME280;56841;55.964;37.674;2023-04-01T16:54:46;98707.53;;;6.77;86.65
69622;BME280;56841;55.964;37.674;2023-04-01T16:57:21;98723.44;;;6.83;86.02
69622;BME280;56841;55.964;37.674;2023-04-01T17:00:27;98712.13;;;6.91;86.29
69622;BME280;56841;55.964;37.674;2023-04-01T17:03:13;98710.28;;;7.00;86.07
69622;BME280;56841;55.964;37.674;2023-04-01T17:09:01;98717.34;;;6.99;85.52
69622;BME280;56841;55.964;37.674;2023-04-01T17:11:50;98720.63;;;7.01;86.19
69622;BME280;56841;55.964;37.674;2023-04-01T17:17:28;98716.50;;;7.15;85.04
69622;BME280;56841;55.964;37.674;2023-04-01T17:28:35;98708.75;;;7.30;85.76
69622;BME280;56841;55.964;37.674;2023-04-01T17:31:02;98708.22;;;7.34;84.74
69622;BME280;56841;55.964;37.674;2023-04-01T17:44:53;98725.09;;;7.48;83.89
69622;BME280;56841;55.964;37.674;2023-04-01T17:52:43;98724.88;;;7.66;81.64
69622;BME280;56841;55.964;37.674;2023-04-01T17:57:46;98730.34;;;7.56;82.72
69622;BME280;56841;55.964;37.674;2023-04-01T18:00:33;98729.97;;;7.68;82.09
69622;BME280;56841;55.964;37.674;2023-04-01T18:05:58;98730.41;;;7.79;81.36
69622;BME280;56841;55.964;37.674;2023-04-01T18:14:15;98734.84;;;7.79;80.07
69622;BME280;56841;55.964;37.674;2023-04-01T18:22:49;98739.28;;;7.23;81.82
69622;BME280;56841;55.964;37.674;2023-04-01T18:25:28;98738.16;;;7.25;81.38
69622;BME280;56841;55.964;37.674;2023-04-01T18:28:24;98744.38;;;7.24;81.41
69622;BME280;56841;55.964;37.674;2023-04-01T18:38:55;98763.25;;;7.20;80.94
69622;BME280;56841;55.964;37.674;2023-04-01T18:44:27;98763.44;;;7.18;81.02
69622;BME280;56841;55.964;37.674;2023-04-01T18:50:18;98773.78;;;7.11;80.72
69622;BME280;56841;55.964;37.674;2023-04-01T18:52:48;98784.28;;;7.03;81.07
69622;BME280;56841;55.964;37.674;2023-04-01T18:57:50;98781.00;;;7.09;81.33
69622;BME280;56841;55.964;37.674;2023-04-01T19:00:22;98782.47;;;6.96;81.42
69622;BME280;56841;55.964;37.674;2023-04-01T19:02:58;98779.69;;;6.97;81.40
69622;BME280;56841;55.964;37.674;2023-04-01T19:05:44;98786.72;;;6.97;81.66
69622;BME280;56841;55.964;37.674;2023-04-01T19:21:57;98795.75;;;7.02;81.98
69622;BME280;56841;55.964;37.674;2023-04-01T19:32:58;98797.09;;;7.15;81.49
69622;BME280;56841;55.964;37.674;2023-04-01T19:35:47;98807.25;;;7.09;81.42
69622;BME280;56841;55.964;37.674;2023-04-01T19:38:19;98804.09;;;7.14;81.31
69622;BME280;56841;55.964;37.674;2023-04-01T19:40:53;98805.25;;;7.20;81.24
69622;BME280;56841;55.964;37.674;2023-04-01T19:59:36;98810.22;;;6.98;83.31
69622;BME280;56841;55.964;37.674;2023-04-01T20:02:59;98818.91;;;6.91;85.20
69622;BME280;56841;55.964;37.674;2023-04-01T20:11:14;98822.47;;;6.65;92.89
69622;BME280;56841;55.964;37.674;2023-04-01T20:19:28;98832.09;;;6.40;98.66
69622;BME280;56841;55.964;37.674;2023-04-01T20:21:58;98824.72;;;6.44;98.35
69622;BME280;56841;55.964;37.674;2023-04-01T20:27:15;98827.22;;;6.53;98.26
69622;BME280;56841;55.964;37.674;2023-04-01T20:29:52;98820.66;;;6.57;97.43
69622;BME280;56841;55.964;37.674;2023-04-01T20:38:35;98834.28;;;6.69;95.91
69622;BME280;56841;55.964;37.674;2023-04-01T20:41:12;98828.22;;;6.77;95.84
69622;BME280;56841;55.964;37.674;2023-04-01T20:44:12;98832.34;;;6.87;94.24
69622;BME280;56841;55.964;37.674;2023-04-01T20:46:48;98833.16;;;6.88;93.47
69622;BME280;56841;55.964;37.674;2023-04-01T20:55:06;98823.47;;;7.13;91.27
69622;BME280;56841;55.964;37.674;2023-04-01T20:57:55;98825.44;;;7.27;89.98
69622;BME280;56841;55.964;37.674;2023-04-01T21:00:35;98826.56;;;7.41;88.58
69622;BME280;56841;55.964;37.674;2023-04-01T21:03:13;98822.81;;;7.35;88.41
69622;BME280;56841;55.964;37.674;2023-04-01T21:16:37;98834.78;;;7.46;86.42
69622;BME280;56841;55.964;37.674;2023-04-01T21:27:33;98841.66;;;7.47;85.97
69622;BME280;56841;55.964;37.674;2023-04-01T21:38:36;98861.03;;;7.38;86.66
69622;BME280;56841;55.964;37.674;2023-04-01T21:47:29;98861.72;;;7.40;86.83
69622;BME280;56841;55.964;37.674;2023-04-01T22:10:39;98868.88;;;7.79;83.81
69622;BME280;56841;55.964;37.674;2023-04-01T22:13:17;98870.81;;;7.85;83.29
69622;BME280;56841;55.964;37.674;2023-04-01T22:18:37;98863.56;;;7.95;82.55
69622;BME280;56841;55.964;37.674;2023-04-01T22:21:21;98870.31;;;7.90;82.64
69622;BME280;56841;55.964;37.674;2023-04-01T22:24:03;98873.25;;;7.95;82.58
69622;BME280;56841;55.964;37.674;2023-04-01T22:26:43;98867.34;;;7.93;82.43
69622;BME280;56841;55.964;37.674;2023-04-01T22:31:43;98870.53;;;7.80;83.22
69622;BME280;56841;55.964;37.674;2023-04-01T22:34:28;98858.19;;;7.80;83.39
69622;BME280;56841;55.964;37.674;2023-04-01T22:42:45;98858.16;;;7.89;82.48
69622;BME280;56841;55.964;37.674;2023-04-01T22:50:37;98874.28;;;7.86;82.89
69622;BME280;56841;55.964;37.674;2023-04-01T22:53:22;98875.25;;;7.84;82.53
69622;BME280;56841;55.964;37.674;2023-04-01T22:55:52;98872.31;;;7.88;82.48
69622;BME280;56841;55.964;37.674;2023-04-01T22:58:25;98875.41;;;7.91;82.51
69622;BME280;56841;55.964;37.674;2023-04-01T23:00:59;98867.53;;;7.91;82.33
69622;BME280;56841;55.964;37.674;2023-04-01T23:03:30;98866.53;;;7.92;82.27
69622;BME280;56841;55.964;37.674;2023-04-01T23:06:02;98869.81;;;7.94;82.26
69622;BME280;56841;55.964;37.674;2023-04-01T23:11:30;98880.16;;;7.96;82.52
69622;BME280;56841;55.964;37.674;2023-04-01T23:17:39;98887.22;;;7.95;82.26
69622;BME280;56841;55.964;37.674;2023-04-01T23:22:57;98880.16;;;7.96;82.47
69622;BME280;56841;55.964;37.674;2023-04-01T23:25:27;98876.72;;;7.95;82.76
69622;BME280;56841;55.964;37.674;2023-04-01T23:28:14;98868.31;;;8.00;82.59
69622;BME280;56841;55.964;37.674;2023-04-01T23:33:13;98881.13;;;8.03;82.74
69622;BME280;56841;55.964;37.674;2023-04-01T23:38:23;98878.38;;;7.88;84.57
69622;BME280;56841;55.964;37.674;2023-04-01T23:40:52;98888.44;;;7.68;85.74
69622;BME280;56841;55.964;37.674;2023-04-01T23:43:28;98887.13;;;7.64;87.48